Time;durP1;ratioP1;P1;durP2;ratioP2;P2;SDS_P1;SDS_P2;PMS_P1;PMS_P2;Temp;Humidity;BMP_temperature;BMP_pressure;BME280_temperature;BME280_humidity;BME280_pressure;Samples;Min_cycle;Max_cycle;Signal;HPM_P1;HPM_P2
2022/05/08 00:02:10;;;;;;;0.20;0.07;;;18.60;99.90;;;;;;25649324;23;20173;-73
2022/05/08 00:12:15;;;;;;;0.20;0.10;;;18.90;99.90;;;;;;25652155;23;20734;-73
2022/05/08 00:22:21;;;;;;;0.20;0.00;;;18.80;99.90;;;;;;25646793;23;20166;-72
2022/05/08 00:32:40;;;;;;;0.20;0.10;;;18.50;99.90;;;;;;25623809;23;20191;-72
2022/05/08 00:42:45;;;;;;;0.20;0.00;;;18.20;99.90;;;;;;25632153;23;20416;-73
2022/05/08 00:52:49;;;;;;;0.20;0.10;;;18.20;99.90;;;;;;25658176;23;20205;-73
2022/05/08 01:02:57;;;;;;;0.20;0.10;;;18.00;99.90;;;;;;25660195;23;20174;-73
2022/05/08 01:13:01;;;;;;;0.20;0.10;;;18.00;99.90;;;;;;25632451;23;20186;-72
2022/05/08 01:23:08;;;;;;;0.20;0.10;;;17.80;99.90;;;;;;25629576;23;20252;-73
2022/05/08 01:33:12;;;;;;;0.20;0.10;;;17.70;99.90;;;;;;25657676;23;20186;-72
2022/05/08 01:43:18;;;;;;;0.20;0.10;;;17.70;99.90;;;;;;25627796;23;20202;-74
2022/05/08 01:53:23;;;;;;;0.20;0.00;;;17.50;99.90;;;;;;25656666;23;20194;-71
2022/05/08 02:03:28;;;;;;;0.20;0.10;;;17.60;99.90;;;;;;25653118;23;20162;-73
2022/05/08 02:13:33;;;;;;;0.20;0.10;;;17.80;99.90;;;;;;25628772;23;20270;-70
2022/05/08 02:23:38;;;;;;;0.20;0.10;;;18.00;99.90;;;;;;25628007;23;20166;-70
2022/05/08 02:33:42;;;;;;;0.20;0.10;;;17.70;99.90;;;;;;25627122;23;20190;-70
2022/05/08 02:43:48;;;;;;;0.20;0.10;;;17.40;99.90;;;;;;25652309;23;20205;-71
2022/05/08 02:53:51;;;;;;;0.20;0.10;;;17.20;99.90;;;;;;25651001;23;20213;-70
2022/05/08 03:03:57;;;;;;;0.20;0.10;;;17.10;99.90;;;;;;25649950;23;20166;-70
2022/05/08 03:14:01;;;;;;;0.20;0.10;;;16.90;99.90;;;;;;25650421;23;20186;-70
2022/05/08 03:24:07;;;;;;;0.20;0.10;;;16.90;99.90;;;;;;25652966;23;20371;-71
2022/05/08 03:34:11;;;;;;;0.20;0.10;;;16.70;99.90;;;;;;25649109;23;20178;-69
2022/05/08 03:44:16;;;;;;;0.20;0.10;;;16.50;99.90;;;;;;25651634;23;20217;-70
2022/05/08 03:54:20;;;;;;;0.20;0.00;;;16.00;99.90;;;;;;25649176;23;20198;-71
2022/05/08 04:04:26;;;;;;;0.20;0.10;;;16.10;99.90;;;;;;25652226;23;20461;-71
2022/05/08 04:14:30;;;;;;;0.20;0.10;;;16.10;99.90;;;;;;25658877;23;20197;-70
2022/05/08 04:24:35;;;;;;;0.20;0.10;;;16.70;99.90;;;;;;25631867;23;20173;-71
2022/05/08 04:34:39;;;;;;;0.20;0.10;;;16.60;99.90;;;;;;25630062;23;20217;-71
2022/05/08 04:44:44;;;;;;;0.20;0.10;;;16.70;99.90;;;;;;25658515;23;20209;-71
2022/05/08 04:54:48;;;;;;;0.20;0.10;;;16.60;99.90;;;;;;25656637;23;20205;-72
2022/05/08 05:04:53;;;;;;;0.20;0.10;;;16.20;99.90;;;;;;25633683;23;20181;-69
2022/05/08 05:14:57;;;;;;;0.20;0.10;;;16.00;99.90;;;;;;25629734;23;20190;-70
2022/05/08 05:25:03;;;;;;;0.20;0.10;;;15.70;99.90;;;;;;25630200;23;20166;-71
2022/05/08 05:35:08;;;;;;;0.20;0.10;;;15.70;99.90;;;;;;25656566;23;20231;-72
2022/05/08 05:45:13;;;;;;;0.20;0.10;;;15.80;99.90;;;;;;25653256;23;20273;-70
2022/05/08 05:55:17;;;;;;;0.20;0.10;;;16.10;99.90;;;;;;25630051;23;20465;-71
2022/05/08 06:05:23;;;;;;;0.20;0.10;;;16.60;99.90;;;;;;25654683;23;20174;-70
2022/05/08 06:15:27;;;;;;;0.20;0.00;;;17.10;99.90;;;;;;25627283;23;20190;-73
2022/05/08 06:25:32;;;;;;;0.20;0.10;;;18.30;99.90;;;;;;25628691;23;20170;-72
2022/05/08 06:35:39;;;;;;;0.20;0.10;;;18.50;99.90;;;;;;25627295;23;20428;-71
2022/05/08 06:45:45;;;;;;;0.20;0.10;;;18.40;99.90;;;;;;25625395;23;20209;-71
2022/05/08 06:55:49;;;;;;;0.20;0.10;;;19.10;99.90;;;;;;25653981;23;20211;-72
2022/05/08 07:05:55;;;;;;;0.20;0.00;;;19.60;99.90;;;;;;25652176;23;20170;-72
2022/05/08 07:15:59;;;;;;;0.20;0.10;;;19.80;99.90;;;;;;25624453;23;20213;-72
2022/05/08 07:26:05;;;;;;;0.20;0.10;;;20.40;99.90;;;;;;25623886;23;20446;-72
2022/05/08 07:36:15;;;;;;;0.20;0.10;;;20.60;99.90;;;;;;25647632;23;20588;-71
2022/05/08 07:46:20;;;;;;;0.20;0.10;;;21.30;99.90;;;;;;25651962;23;20194;-70
2022/05/08 07:56:24;;;;;;;0.20;0.10;;;20.20;99.90;;;;;;25623678;23;20206;-72
2022/05/08 08:06:30;;;;;;;0.20;0.10;;;19.30;99.90;;;;;;25653023;23;20189;-72
2022/05/08 08:16:34;;;;;;;0.20;0.13;;;19.30;99.90;;;;;;25649839;23;20204;-73
2022/05/08 08:26:41;;;;;;;0.20;0.10;;;19.00;99.90;;;;;;25623878;23;20174;-75
2022/05/08 08:36:45;;;;;;;0.20;0.10;;;19.00;99.90;;;;;;25646789;23;20186;-74
2022/05/08 08:57:13;;;;;;;0.20;0.10;;;19.50;99.90;;;;;;25649966;23;20229;-72
2022/05/08 09:07:44;;;;;;;0.20;0.10;;;19.90;99.90;;;;;;25654232;23;20387;-72
2022/05/08 09:17:48;;;;;;;0.20;0.10;;;20.20;99.90;;;;;;25601896;23;20202;-73
2022/05/08 09:28:02;;;;;;;0.20;0.10;;;20.10;99.90;;;;;;25653776;23;20170;-72
2022/05/08 09:38:06;;;;;;;0.20;0.10;;;19.70;99.90;;;;;;25651798;23;20431;-72
2022/05/08 09:48:17;;;;;;;0.20;0.10;;;20.20;99.90;;;;;;25654102;23;20186;-74
2022/05/08 09:58:21;;;;;;;0.20;0.10;;;21.30;99.90;;;;;;25654490;23;20201;-74
2022/05/08 10:08:29;;;;;;;0.20;0.00;;;21.90;99.90;;;;;;25622092;23;20235;-76
2022/05/08 10:18:33;;;;;;;0.20;0.10;;;21.10;99.90;;;;;;25625015;23;20205;-71
2022/05/08 10:29:13;;;;;;;0.20;0.10;;;20.70;99.90;;;;;;25650026;23;20166;-71
2022/05/08 10:39:41;;;;;;;0.20;0.10;;;20.80;99.90;;;;;;25624367;23;20273;-72
2022/05/08 10:49:46;;;;;;;0.20;0.10;;;21.00;99.90;;;;;;25621448;23;20170;-71
2022/05/08 10:59:50;;;;;;;0.60;0.53;;;21.20;99.90;;;;;;25646582;23;20191;-72
2022/05/08 11:09:55;;;;;;;0.20;0.10;;;21.80;99.90;;;;;;25647285;23;20169;-75
2022/05/08 11:19:59;;;;;;;0.20;0.00;;;22.30;99.90;;;;;;25622233;23;20190;-71
2022/05/08 11:30:06;;;;;;;0.20;0.00;;;22.20;99.90;;;;;;25647906;23;20462;-74
2022/05/08 11:40:11;;;;;;;0.20;0.10;;;23.10;99.90;;;;;;25647484;23;20197;-73
2022/05/08 11:50:16;;;;;;;0.20;0.00;;;23.60;99.90;;;;;;25624334;23;20309;-73
2022/05/08 12:00:20;;;;;;;0.20;0.00;;;24.20;99.90;;;;;;25618124;23;20190;-75
2022/05/08 12:10:41;;;;;;;0.20;0.10;;;25.20;99.90;;;;;;25648499;23;20170;-73
2022/05/08 12:20:44;;;;;;;0.20;0.00;;;25.90;99.90;;;;;;25647494;23;20194;-74
2022/05/08 12:30:50;;;;;;;0.20;0.00;;;27.50;99.90;;;;;;25651504;23;20167;-75
2022/05/08 12:40:56;;;;;;;0.20;0.10;;;27.40;99.90;;;;;;25629338;23;20464;-75
2022/05/08 12:51:02;;;;;;;0.20;0.00;;;27.90;99.90;;;;;;25656463;23;20181;-72
2022/05/08 13:01:06;;;;;;;0.32;0.25;;;27.40;99.90;;;;;;25661366;23;20193;-73
2022/05/08 13:11:12;;;;;;;0.20;0.00;;;26.10;99.90;;;;;;25634390;23;20170;-71
2022/05/08 13:21:16;;;;;;;0.20;0.00;;;26.90;99.90;;;;;;25632568;23;20245;-72
2022/05/08 13:31:21;;;;;;;0.20;0.00;;;26.30;99.90;;;;;;25635651;23;20178;-71
2022/05/08 13:41:25;;;;;;;0.20;0.00;;;24.30;99.90;;;;;;25621005;23;20639;-72
2022/05/08 13:51:31;;;;;;;0.93;0.93;;;23.80;99.90;;;;;;25659342;23;20186;-71
2022/05/08 14:01:34;;;;;;;0.20;0.00;;;23.10;99.90;;;;;;25657637;23;20181;-71
2022/05/08 14:11:40;;;;;;;0.20;0.00;;;23.40;99.90;;;;;;25630599;23;20167;-71
2022/05/08 14:21:44;;;;;;;0.20;0.10;;;23.50;99.90;;;;;;25628386;23;20150;-73
2022/05/08 14:42:11;;;;;;;0.20;0.20;;;24.50;99.90;;;;;;25630778;23;20194;-72
2022/05/08 14:52:16;;;;;;;0.20;0.00;;;23.60;99.90;;;;;;25656029;23;20205;-72
2022/05/08 15:02:20;;;;;;;0.20;0.00;;;24.50;99.90;;;;;;25628546;23;20177;-72
2022/05/08 15:12:33;;;;;;;0.20;0.00;;;23.60;99.90;;;;;;25654398;23;20188;-72
2022/05/08 15:22:37;;;;;;;0.20;0.00;;;23.20;99.90;;;;;;25654358;23;20166;-73
2022/05/08 15:32:43;;;;;;;0.20;0.10;;;27.70;99.90;;;;;;25629271;23;20186;-72
2022/05/08 15:42:46;;;;;;;0.20;0.00;;;27.20;99.90;;;;;;25653983;23;20193;-73
2022/05/08 15:52:54;;;;;;;0.20;0.00;;;26.30;99.90;;;;;;25651192;23;20190;-73
2022/05/08 16:02:58;;;;;;;0.20;0.20;;;25.00;99.90;;;;;;25624770;23;20170;-72
2022/05/08 16:23:39;;;;;;;0.20;0.10;;;23.10;99.90;;;;;;25395118;23;20185;-74
2022/05/08 16:33:45;;;;;;;0.20;0.10;;;22.90;99.90;;;;;;25628832;23;20197;-75
2022/05/08 16:43:49;;;;;;;0.20;0.10;;;22.80;99.90;;;;;;25654619;23;20234;-74
2022/05/08 16:53:54;;;;;;;0.20;0.00;;;22.90;99.90;;;;;;25650817;23;20191;-75
2022/05/08 17:03:58;;;;;;;0.20;0.10;;;23.30;99.90;;;;;;25628488;23;20185;-73
2022/05/08 17:14:03;;;;;;;0.30;0.30;;;23.70;99.90;;;;;;25652367;23;20193;-73
2022/05/08 17:24:08;;;;;;;0.20;0.00;;;25.20;99.90;;;;;;25660856;23;20169;-74
2022/05/08 17:34:14;;;;;;;0.20;0.00;;;26.50;99.90;;;;;;25629211;23;20194;-73
2022/05/08 17:44:18;;;;;;;0.20;0.00;;;26.80;99.90;;;;;;25657982;23;20204;-76
2022/05/08 17:54:24;;;;;;;0.20;0.00;;;26.20;99.90;;;;;;25630714;23;20207;-73
2022/05/08 18:14:53;;;;;;;0.20;0.00;;;22.30;99.90;;;;;;25618058;23;20209;-74
2022/05/08 18:24:57;;;;;;;0.20;0.10;;;22.30;99.90;;;;;;25654779;23;20170;-74
2022/05/08 18:35:02;;;;;;;0.20;0.10;;;21.90;99.90;;;;;;25649733;23;20201;-74
2022/05/08 18:45:06;;;;;;;0.20;0.00;;;21.30;99.90;;;;;;25654069;23;20435;-73
2022/05/08 18:55:12;;;;;;;0.20;0.10;;;20.80;99.90;;;;;;25652838;23;20190;-74
2022/05/08 19:05:16;;;;;;;0.20;0.10;;;20.30;99.90;;;;;;25652061;23;20170;-73
2022/05/08 19:15:21;;;;;;;0.20;0.03;;;19.90;99.90;;;;;;25656846;23;20205;-72
2022/05/08 19:25:26;;;;;;;0.20;0.10;;;19.60;99.90;;;;;;25656151;23;20171;-73
2022/05/08 19:45:52;;;;;;;0.20;0.00;;;18.90;99.90;;;;;;25623984;23;20201;-73
2022/05/08 19:55:58;;;;;;;0.20;0.00;;;18.40;99.90;;;;;;25649595;23;20201;-73
2022/05/08 20:06:02;;;;;;;0.20;0.10;;;18.10;99.90;;;;;;25650696;23;20170;-72
2022/05/08 20:16:07;;;;;;;0.20;0.10;;;18.10;99.90;;;;;;25628053;23;20201;-72
2022/05/08 20:26:11;;;;;;;0.20;0.00;;;17.90;99.90;;;;;;25654584;23;20155;-71
2022/05/08 20:36:16;;;;;;;0.20;0.00;;;17.60;99.90;;;;;;25655167;23;20205;-72
2022/05/08 20:46:20;;;;;;;0.20;0.10;;;17.50;99.90;;;;;;25652581;23;20404;-72
2022/05/08 20:56:26;;;;;;;0.20;0.07;;;17.50;99.90;;;;;;25655000;23;20190;-72
2022/05/08 21:16:52;;;;;;;0.20;0.00;;;17.20;99.90;;;;;;25658266;23;20197;-74
2022/05/08 21:26:56;;;;;;;0.20;0.10;;;16.90;99.90;;;;;;25657991;23;20186;-72
2022/05/08 21:37:01;;;;;;;0.20;0.10;;;17.00;99.90;;;;;;25632005;23;20186;-72
2022/05/08 21:47:05;;;;;;;0.20;0.10;;;16.90;99.90;;;;;;25604898;23;20224;-70
2022/05/08 21:57:10;;;;;;;0.20;0.10;;;16.70;99.90;;;;;;25654873;23;20221;-70
2022/05/08 22:07:14;;;;;;;0.20;0.10;;;16.70;99.90;;;;;;25655790;23;20174;-71
2022/05/08 22:17:19;;;;;;;0.20;0.10;;;16.60;99.90;;;;;;25628747;23;20194;-72
2022/05/08 22:27:23;;;;;;;0.20;0.00;;;16.80;99.90;;;;;;25657703;23;20540;-71
2022/05/08 22:37:28;;;;;;;0.20;0.10;;;16.70;99.90;;;;;;25655468;23;20186;-72
2022/05/08 22:47:32;;;;;;;0.20;0.10;;;16.80;99.90;;;;;;25656419;23;20198;-72
2022/05/08 22:57:37;;;;;;;0.20;0.10;;;16.60;99.90;;;;;;25654250;23;20194;-71
2022/05/08 23:07:42;;;;;;;0.20;0.10;;;16.60;99.90;;;;;;25653977;23;20346;-71
2022/05/08 23:17:47;;;;;;;0.20;0.10;;;16.50;99.90;;;;;;25653781;23;20186;-70
2022/05/08 23:27:51;;;;;;;0.20;0.00;;;16.70;99.90;;;;;;25626997;23;20170;-70
2022/05/08 23:37:56;;;;;;;0.20;0.10;;;16.90;99.90;;;;;;25649153;23;20414;-71
2022/05/08 23:48:00;;;;;;;0.20;0.10;;;17.30;99.90;;;;;;25625206;23;20194;-71
2022/05/08 23:58:06;;;;;;;0.20;0.10;;;17.80;99.90;;;;;;25650158;23;20190;-71
